Time;durP1;ratioP1;P1;durP2;ratioP2;P2;SDS_P1;SDS_P2;PMS_P1;PMS_P2;Temp;Humidity;BMP_temperature;BMP_pressure;BME280_temperature;BME280_humidity;BME280_pressure;Samples;Min_cycle;Max_cycle;Signal;HPM_P1;HPM_P2
2020/12/24 16:40:16;;;;;;;6.00;1.67;;;21.00;51.00;;;;;;5151270;23;20092;-50
2020/12/24 16:42:41;;;;;;;6.78;1.90;;;21.10;51.10;;;;;;4996347;28;20070;-51
2020/12/24 16:45:07;;;;;;;4.18;1.67;;;21.20;51.10;;;;;;4997074;28;20041;-48
2020/12/24 16:47:32;;;;;;;3.22;1.42;;;21.30;51.00;;;;;;4996908;28;20034;-50
2020/12/24 16:49:58;;;;;;;6.88;2.00;;;21.40;50.80;;;;;;4996486;28;20054;-49
2020/12/24 16:52:23;;;;;;;7.18;2.53;;;21.40;50.70;;;;;;4996358;28;20042;-45
2020/12/24 16:54:49;;;;;;;5.10;1.98;;;21.50;50.70;;;;;;4996389;28;20030;-54
2020/12/24 16:57:14;;;;;;;8.10;2.05;;;21.60;50.60;;;;;;4996631;28;20045;-45
2020/12/24 16:59:40;;;;;;;5.47;2.33;;;21.60;50.50;;;;;;4996549;28;20500;-49
2020/12/24 17:02:05;;;;;;;6.55;2.17;;;21.70;50.50;;;;;;4996446;28;20053;-52
2020/12/24 17:04:31;;;;;;;6.32;2.15;;;21.70;50.00;;;;;;4996742;28;20368;-49
2020/12/24 17:06:57;;;;;;;6.38;1.50;;;21.80;48.90;;;;;;4996388;28;20035;-48
2020/12/24 17:09:23;;;;;;;4.35;1.77;;;21.70;47.10;;;;;;4995977;28;20491;-47
2020/12/24 17:11:51;;;;;;;6.72;1.35;;;21.70;48.50;;;;;;4996414;28;20038;-49
2020/12/24 17:14:17;;;;;;;4.28;1.50;;;21.70;49.00;;;;;;4995900;28;20491;-47
2020/12/24 17:16:42;;;;;;;7.75;2.30;;;21.70;49.30;;;;;;4996087;28;20038;-47
2020/12/24 17:19:08;;;;;;;5.55;1.77;;;21.70;49.20;;;;;;4996235;28;20038;-50
2020/12/24 17:21:33;;;;;;;13.85;3.88;;;21.70;49.40;;;;;;4995809;28;20038;-47
2020/12/24 17:23:59;;;;;;;18.50;5.40;;;21.80;49.60;;;;;;4996264;28;20034;-53
2020/12/24 17:26:28;;;;;;;21.20;5.38;;;21.80;49.80;;;;;;4996353;28;20039;-48
2020/12/24 17:28:54;;;;;;;23.77;6.75;;;21.90;50.00;;;;;;4995839;28;20407;-47
2020/12/24 17:31:21;;;;;;;23.38;5.60;;;21.90;50.10;;;;;;4995948;28;20108;-50
2020/12/24 17:33:49;;;;;;;15.27;4.65;;;22.00;50.10;;;;;;4996090;28;20058;-49
2020/12/24 17:36:14;;;;;;;16.40;5.13;;;22.10;50.10;;;;;;4995824;28;20041;-53
2020/12/24 17:38:41;;;;;;;15.55;4.65;;;22.10;50.10;;;;;;4996179;28;20030;-50
2020/12/24 17:41:09;;;;;;;17.92;5.30;;;22.20;50.00;;;;;;4996010;28;20050;-47
2020/12/24 17:43:36;;;;;;;20.58;5.38;;;22.30;50.00;;;;;;4995801;28;20045;-48
2020/12/24 17:46:02;;;;;;;14.13;4.53;;;22.30;50.00;;;;;;4995860;28;20092;-52
2020/12/24 17:48:27;;;;;;;19.15;5.40;;;22.30;49.90;;;;;;4996197;28;20372;-52
2020/12/24 17:50:53;;;;;;;16.70;5.20;;;22.40;49.90;;;;;;4995569;28;20077;-50
2020/12/24 17:53:18;;;;;;;14.60;3.90;;;22.40;50.00;;;;;;4995607;28;20038;-47
2020/12/24 17:55:44;;;;;;;18.30;4.57;;;22.40;50.10;;;;;;4995427;28;20461;-47
2020/12/24 17:58:09;;;;;;;16.58;4.80;;;22.40;50.20;;;;;;4995544;28;20034;-45
2020/12/24 18:00:35;;;;;;;13.88;4.00;;;22.40;50.20;;;;;;4995534;28;20109;-46
2020/12/24 18:03:00;;;;;;;15.95;4.55;;;22.40;50.20;;;;;;4995844;28;20046;-48
2020/12/24 18:05:26;;;;;;;15.20;4.68;;;22.40;50.20;;;;;;4995523;28;20034;-45
2020/12/24 18:07:51;;;;;;;9.68;3.55;;;22.40;50.30;;;;;;4995172;28;20034;-47
2020/12/24 18:10:17;;;;;;;13.82;4.80;;;22.40;50.30;;;;;;4995366;28;20050;-51
2020/12/24 18:12:43;;;;;;;13.70;3.80;;;22.40;50.20;;;;;;4995352;28;20168;-51
2020/12/24 18:15:08;;;;;;;10.73;3.88;;;22.50;50.30;;;;;;4995425;28;20106;-50
2020/12/24 18:17:34;;;;;;;13.13;4.35;;;22.50;50.30;;;;;;4995805;28;20038;-45
2020/12/24 18:20:00;;;;;;;17.23;7.45;;;22.50;49.50;;;;;;4995397;28;20433;-46
2020/12/24 18:22:25;;;;;;;13.98;7.00;;;22.50;48.80;;;;;;4996102;28;20035;-49
2020/12/24 18:24:51;;;;;;;16.55;6.60;;;22.50;48.60;;;;;;4999500;28;20053;-50
2020/12/24 18:27:16;;;;;;;15.55;5.93;;;22.50;48.30;;;;;;4998872;28;20449;-50
2020/12/24 18:29:42;;;;;;;13.35;6.20;;;22.50;48.20;;;;;;4999630;28;20053;-49
2020/12/24 18:32:07;;;;;;;13.45;6.03;;;22.50;48.10;;;;;;4999307;28;20456;-49
2020/12/24 18:34:33;;;;;;;20.08;8.75;;;22.50;48.00;;;;;;4999157;28;20043;-52
2020/12/24 18:36:59;;;;;;;28.80;10.73;;;22.40;48.00;;;;;;4999499;28;20110;-49
2020/12/24 18:39:26;;;;;;;29.13;9.75;;;22.40;48.70;;;;;;4998833;28;20030;-51
2020/12/24 18:41:51;;;;;;;21.42;8.38;;;22.40;49.00;;;;;;4998393;28;20492;-46
2020/12/24 18:44:17;;;;;;;19.08;8.02;;;22.40;49.00;;;;;;4999061;28;20034;-50
2020/12/24 18:46:43;;;;;;;19.08;7.57;;;22.30;49.20;;;;;;4999191;28;20035;-46
2020/12/24 18:49:08;;;;;;;20.42;7.15;;;22.30;49.30;;;;;;4998708;28;20044;-45
2020/12/24 18:51:34;;;;;;;17.58;6.95;;;22.30;49.20;;;;;;4999042;28;20046;-45
2020/12/24 18:53:59;;;;;;;17.77;6.72;;;22.30;49.20;;;;;;4998592;28;20076;-47
2020/12/24 18:56:25;;;;;;;17.27;6.20;;;22.30;49.20;;;;;;4998899;28;20030;-45
2020/12/24 18:58:50;;;;;;;14.77;6.15;;;22.20;49.70;;;;;;4998950;28;20038;-46
2020/12/24 19:01:16;;;;;;;12.88;5.63;;;22.20;48.90;;;;;;4998724;28;20031;-46
2020/12/24 19:03:41;;;;;;;11.30;5.35;;;22.10;48.90;;;;;;4998838;28;20067;-47
2020/12/24 19:06:08;;;;;;;12.27;4.68;;;22.10;48.90;;;;;;4998839;28;20372;-47
2020/12/24 19:08:37;;;;;;;12.13;4.25;;;22.10;48.90;;;;;;4998305;28;20050;-47
2020/12/24 19:11:04;;;;;;;12.40;4.97;;;22.00;48.80;;;;;;4998287;28;20046;-46
2020/12/24 19:13:29;;;;;;;13.15;5.45;;;22.00;48.70;;;;;;4998832;28;20034;-50
2020/12/24 19:15:55;;;;;;;14.02;6.43;;;22.00;48.70;;;;;;4998517;28;20110;-51
2020/12/24 19:18:20;;;;;;;11.18;5.43;;;22.00;48.80;;;;;;4998111;28;20054;-50
2020/12/24 19:20:46;;;;;;;14.07;4.82;;;21.90;48.60;;;;;;4998360;28;20042;-51
2020/12/24 19:23:11;;;;;;;10.95;5.03;;;21.90;48.70;;;;;;4998264;28;20068;-55
2020/12/24 19:25:37;;;;;;;11.18;4.63;;;21.90;48.90;;;;;;4997973;28;20034;-53
2020/12/24 19:28:03;;;;;;;13.88;4.53;;;21.90;48.90;;;;;;4998506;28;20416;-50
2020/12/24 19:30:28;;;;;;;11.18;5.10;;;21.90;48.90;;;;;;4998318;28;20423;-45
2020/12/24 19:32:54;;;;;;;13.00;5.68;;;21.90;48.70;;;;;;4998068;28;20038;-48
2020/12/24 19:35:20;;;;;;;12.02;5.43;;;21.90;48.50;;;;;;4996555;28;20041;-47
2020/12/24 19:37:47;;;;;;;12.65;4.93;;;21.80;48.30;;;;;;4998121;28;20045;-50
2020/12/24 19:40:13;;;;;;;11.35;5.15;;;21.80;48.20;;;;;;4998418;28;20046;-50
2020/12/24 19:42:38;;;;;;;11.00;4.68;;;21.80;48.20;;;;;;4997782;28;20039;-50
2020/12/24 19:45:04;;;;;;;10.85;4.97;;;21.80;48.60;;;;;;4998302;28;20040;-53
2020/12/24 19:47:29;;;;;;;10.38;4.43;;;21.80;48.90;;;;;;4998931;28;20120;-49
2020/12/24 19:49:55;;;;;;;8.77;4.00;;;21.90;49.10;;;;;;4997951;28;20413;-50
2020/12/24 19:52:21;;;;;;;7.10;3.92;;;21.90;49.20;;;;;;4998315;28;20042;-47
2020/12/24 19:54:46;;;;;;;8.20;4.43;;;21.90;49.20;;;;;;4997503;28;20520;-52
2020/12/24 19:57:13;;;;;;;11.18;3.80;;;21.90;49.30;;;;;;4998010;28;20437;-52
2020/12/24 19:59:39;;;;;;;8.57;3.80;;;22.00;49.40;;;;;;4997488;28;20360;-49
2020/12/24 20:02:05;;;;;;;6.90;3.65;;;22.00;49.40;;;;;;4997942;28;20039;-49
2020/12/24 20:04:31;;;;;;;7.10;3.50;;;22.10;49.40;;;;;;4997628;28;20120;-51
2020/12/24 20:06:57;;;;;;;6.32;3.10;;;22.10;49.40;;;;;;4997524;28;20440;-51
2020/12/24 20:09:23;;;;;;;6.95;3.85;;;22.10;49.40;;;;;;4997664;28;20034;-47
2020/12/24 20:11:49;;;;;;;8.68;3.47;;;22.10;49.40;;;;;;4997472;28;20034;-50
2020/12/24 20:14:15;;;;;;;7.90;3.30;;;22.10;49.40;;;;;;4997254;28;20120;-47
2020/12/24 20:16:41;;;;;;;9.65;4.05;;;22.20;49.40;;;;;;4997450;28;20517;-51
2020/12/24 20:19:06;;;;;;;7.53;3.30;;;22.20;49.50;;;;;;4997662;28;20053;-52
2020/12/24 20:21:32;;;;;;;11.35;4.05;;;22.20;49.60;;;;;;4997560;28;20076;-51
2020/12/24 20:23:58;;;;;;;6.18;3.45;;;22.20;49.60;;;;;;4997166;28;20057;-46
2020/12/24 20:26:23;;;;;;;6.15;3.65;;;22.20;49.50;;;;;;4997407;28;20053;-46
2020/12/24 20:28:49;;;;;;;5.28;3.13;;;22.20;49.60;;;;;;4997041;28;20045;-47
2020/12/24 20:31:15;;;;;;;14.93;6.72;;;22.20;49.60;;;;;;4996940;28;20117;-47
2020/12/24 20:33:41;;;;;;;18.40;7.65;;;22.20;49.70;;;;;;4997049;28;20038;-47
2020/12/24 20:36:07;;;;;;;10.57;6.05;;;22.20;49.70;;;;;;4996787;28;20038;-53
2020/12/24 20:38:33;;;;;;;10.38;5.15;;;22.20;49.70;;;;;;4997343;28;20436;-51
2020/12/24 20:40:59;;;;;;;10.93;5.40;;;22.30;49.70;;;;;;4997300;28;20116;-51
2020/12/24 20:43:25;;;;;;;9.82;4.90;;;22.30;49.70;;;;;;4996929;28;20034;-51
2020/12/24 20:45:51;;;;;;;11.07;4.70;;;22.20;49.70;;;;;;4996095;28;20479;-50
2020/12/24 20:48:16;;;;;;;8.00;4.50;;;22.30;49.70;;;;;;4996635;28;20034;-51
2020/12/24 20:50:42;;;;;;;7.47;4.35;;;22.30;49.70;;;;;;4996693;28;20381;-49
2020/12/24 20:53:08;;;;;;;8.52;4.53;;;22.30;49.70;;;;;;4996372;28;20046;-52
2020/12/24 20:55:34;;;;;;;8.98;4.20;;;22.30;49.60;;;;;;4996332;28;20042;-49
2020/12/24 20:58:00;;;;;;;8.07;3.92;;;22.30;49.60;;;;;;4996771;28;20034;-50
2020/12/24 21:00:25;;;;;;;8.63;4.20;;;22.30;49.60;;;;;;4997303;28;20452;-46
2020/12/24 21:02:51;;;;;;;7.22;3.40;;;22.40;49.60;;;;;;4996504;28;20405;-51
2020/12/24 21:05:16;;;;;;;8.20;4.18;;;22.40;49.60;;;;;;4996032;28;20031;-48
2020/12/24 21:07:42;;;;;;;7.30;3.67;;;22.40;49.50;;;;;;4996058;28;20108;-48
2020/12/24 21:10:08;;;;;;;6.57;3.25;;;22.40;49.50;;;;;;4996315;28;20047;-53
2020/12/24 21:12:34;;;;;;;8.70;4.18;;;22.40;49.50;;;;;;4996309;28;20034;-48
2020/12/24 21:15:00;;;;;;;18.02;7.93;;;22.40;49.40;;;;;;4995996;28;20038;-54
2020/12/24 21:17:26;;;;;;;17.00;10.18;;;22.40;49.40;;;;;;4996276;28;20045;-53
2020/12/24 21:19:51;;;;;;;20.90;10.68;;;22.40;49.30;;;;;;4996051;28;20365;-47
2020/12/24 21:22:17;;;;;;;21.38;11.48;;;22.40;49.30;;;;;;4995832;28;20038;-48
2020/12/24 21:24:42;;;;;;;23.33;10.80;;;22.40;49.30;;;;;;4996296;28;20105;-51
2020/12/24 21:27:09;;;;;;;19.30;11.43;;;22.40;49.30;;;;;;4996572;28;20035;-51
2020/12/24 21:29:35;;;;;;;18.00;10.48;;;22.40;49.30;;;;;;4995714;28;20042;-49
2020/12/24 21:32:00;;;;;;;19.88;10.38;;;22.40;49.30;;;;;;4995712;28;20046;-48
2020/12/24 21:34:27;;;;;;;18.65;9.82;;;22.40;49.40;;;;;;4995934;28;20189;-47
2020/12/24 21:36:52;;;;;;;16.75;9.02;;;22.40;49.40;;;;;;4995674;28;20041;-47
2020/12/24 21:39:18;;;;;;;13.10;8.48;;;22.40;49.30;;;;;;4996187;28;20445;-49
2020/12/24 21:41:44;;;;;;;18.70;9.05;;;22.40;49.20;;;;;;4995984;28;20086;-51
2020/12/24 21:44:09;;;;;;;15.32;9.15;;;22.40;49.20;;;;;;4996007;28;20092;-50
2020/12/24 21:46:35;;;;;;;15.50;8.38;;;22.40;49.10;;;;;;4996195;28;20096;-48
2020/12/24 21:49:01;;;;;;;16.67;7.85;;;22.30;49.00;;;;;;4995753;28;20042;-50
2020/12/24 21:51:29;;;;;;;13.02;7.57;;;22.30;49.00;;;;;;4995670;28;20109;-54
2020/12/24 21:53:54;;;;;;;13.68;8.13;;;22.30;48.90;;;;;;4995183;28;20532;-52
2020/12/24 21:56:22;;;;;;;11.95;7.13;;;22.30;49.00;;;;;;4995530;28;20076;-50
2020/12/24 21:58:49;;;;;;;19.70;7.78;;;22.30;49.00;;;;;;4995153;28;20030;-52
2020/12/24 22:01:17;;;;;;;14.10;6.50;;;22.30;49.00;;;;;;4995583;28;20085;-52
2020/12/24 22:03:42;;;;;;;15.23;6.80;;;22.30;49.00;;;;;;4995867;28;20045;-54
2020/12/24 22:06:08;;;;;;;13.65;7.03;;;22.30;48.90;;;;;;4996097;28;20038;-52
2020/12/24 22:08:35;;;;;;;12.18;6.15;;;22.20;48.90;;;;;;4995533;28;20192;-52
2020/12/24 22:11:01;;;;;;;12.77;6.50;;;22.30;48.90;;;;;;4995235;28;20049;-53
2020/12/24 22:13:27;;;;;;;8.57;5.32;;;22.20;48.80;;;;;;4995146;28;20358;-52
2020/12/24 22:15:52;;;;;;;11.50;6.20;;;22.20;48.80;;;;;;4995853;28;20034;-50
2020/12/24 22:18:18;;;;;;;11.98;5.90;;;22.20;48.80;;;;;;4995441;28;20254;-51
2020/12/24 22:20:46;;;;;;;14.90;5.65;;;22.20;48.70;;;;;;4995440;28;20073;-52
2020/12/24 22:23:11;;;;;;;9.63;5.45;;;22.20;48.70;;;;;;4995170;28;20120;-51
2020/12/24 22:25:37;;;;;;;13.32;5.82;;;22.20;48.80;;;;;;4995289;28;20082;-52
2020/12/24 22:28:03;;;;;;;12.75;6.47;;;22.20;48.70;;;;;;4995264;28;20065;-47
2020/12/24 22:30:28;;;;;;;11.93;5.40;;;22.10;48.70;;;;;;4995357;28;20048;-48
2020/12/24 22:32:55;;;;;;;12.18;5.82;;;22.10;48.70;;;;;;4995741;28;20054;-46
2020/12/24 22:35:21;;;;;;;9.55;5.20;;;22.10;48.70;;;;;;4995166;28;20117;-47
2020/12/24 22:37:46;;;;;;;10.80;5.18;;;22.10;48.70;;;;;;4995166;28;20137;-47
2020/12/24 22:40:12;;;;;;;10.63;5.25;;;22.10;48.70;;;;;;4995415;28;20050;-48
2020/12/24 22:42:39;;;;;;;10.50;4.88;;;22.10;48.70;;;;;;4995464;28;20077;-46
2020/12/24 22:45:07;;;;;;;10.88;5.70;;;22.00;48.60;;;;;;4995223;28;20473;-51
2020/12/24 22:47:38;;;;;;;12.35;5.00;;;22.00;48.60;;;;;;4994938;28;20433;-55
2020/12/24 22:50:06;;;;;;;10.32;5.03;;;22.00;48.60;;;;;;4994820;28;20108;-50
2020/12/24 22:52:35;;;;;;;9.88;5.22;;;22.00;48.60;;;;;;4995122;28;20110;-52
2020/12/24 22:55:00;;;;;;;8.27;4.78;;;22.00;48.70;;;;;;4995238;28;20043;-55
2020/12/24 22:57:25;;;;;;;8.95;4.72;;;22.00;48.60;;;;;;4995048;28;20368;-51
2020/12/24 22:59:51;;;;;;;8.45;4.40;;;22.00;48.60;;;;;;4994816;28;20034;-53
2020/12/24 23:02:17;;;;;;;8.75;4.30;;;21.90;48.60;;;;;;4995002;28;20053;-53
2020/12/24 23:04:42;;;;;;;8.73;4.60;;;21.90;48.60;;;;;;4994761;28;20039;-53
2020/12/24 23:07:07;;;;;;;9.48;4.55;;;21.90;48.70;;;;;;4994905;28;20104;-55
2020/12/24 23:09:34;;;;;;;6.00;3.75;;;21.90;48.60;;;;;;4996975;28;20038;-52
2020/12/24 23:11:59;;;;;;;8.55;4.47;;;21.90;48.70;;;;;;4998598;28;20121;-52
2020/12/24 23:14:25;;;;;;;6.78;3.65;;;21.80;48.70;;;;;;4998269;28;20465;-52
2020/12/24 23:16:50;;;;;;;11.52;3.83;;;21.80;48.70;;;;;;4998513;28;20045;-50
2020/12/24 23:19:16;;;;;;;9.73;4.55;;;21.80;48.50;;;;;;4998227;28;20053;-52
2020/12/24 23:21:41;;;;;;;7.85;3.92;;;21.80;49.30;;;;;;4998157;28;20367;-54
2020/12/24 23:24:07;;;;;;;9.30;3.85;;;21.70;48.60;;;;;;4998480;28;20034;-53
2020/12/24 23:26:32;;;;;;;6.10;3.50;;;21.70;48.50;;;;;;4998349;28;20467;-49
2020/12/24 23:28:58;;;;;;;7.95;3.45;;;21.70;48.60;;;;;;4998547;28;20041;-49
2020/12/24 23:31:23;;;;;;;10.40;3.75;;;21.70;48.60;;;;;;4998114;28;20089;-51
2020/12/24 23:33:49;;;;;;;5.28;3.22;;;21.70;48.60;;;;;;4998060;28;20142;-51
2020/12/24 23:36:20;;;;;;;6.88;3.45;;;21.70;48.50;;;;;;4998181;28;20113;-52
2020/12/24 23:38:45;;;;;;;6.93;3.63;;;21.60;48.40;;;;;;4998533;28;20117;-48
2020/12/24 23:41:11;;;;;;;6.07;3.25;;;21.60;48.40;;;;;;4998213;28;20125;-51
2020/12/24 23:43:36;;;;;;;5.20;3.10;;;21.60;48.40;;;;;;4998066;28;20093;-50
2020/12/24 23:46:06;;;;;;;5.32;2.58;;;21.60;48.40;;;;;;4997966;28;20035;-52
2020/12/24 23:48:32;;;;;;;5.30;2.92;;;21.50;48.60;;;;;;4997730;28;20038;-50
2020/12/24 23:50:57;;;;;;;5.55;2.67;;;21.50;48.30;;;;;;4997764;28;20402;-47
2020/12/24 23:53:23;;;;;;;5.63;3.00;;;21.50;48.30;;;;;;4998121;28;20041;-50
2020/12/24 23:55:48;;;;;;;6.00;2.58;;;21.50;48.30;;;;;;4997661;28;20397;-52
2020/12/24 23:58:14;;;;;;;5.07;2.92;;;21.50;48.30;;;;;;4998099;28;20186;-52
